Time;durP1;ratioP1;P1;durP2;ratioP2;P2;SDS_P1;SDS_P2;PMS_P1;PMS_P2;Temp;Humidity;BMP_temperature;BMP_pressure;BME280_temperature;BME280_humidity;BME280_pressure;Samples;Min_cycle;Max_cycle;Signal;HPM_P1;HPM_P2
2023/10/31 00:02:00;;;;;;;0.30;0.30;;;;;;;;;;5020608;28;20049;-82
2023/10/31 00:04:27;;;;;;;0.10;0.10;;;;;;;;;;5009173;28;20068;-82
2023/10/31 00:06:54;;;;;;;0.10;0.10;;;;;;;;;;5020598;28;20046;-82
2023/10/31 00:09:22;;;;;;;0.00;0.00;;;;;;;;;;5006616;28;20037;-82
2023/10/31 00:11:49;;;;;;;0.20;0.20;;;;;;;;;;5026061;28;20045;-82
2023/10/31 00:14:17;;;;;;;0.10;0.10;;;;;;;;;;5019246;28;20096;-82
2023/10/31 00:16:58;;;;;;;0.32;0.32;;;;;;;;;;5026883;28;20132;-82
2023/10/31 00:19:26;;;;;;;0.10;0.10;;;;;;;;;;5023105;28;20072;-82
2023/10/31 00:21:54;;;;;;;1.42;0.90;;;;;;;;;;5024101;28;20510;-80
2023/10/31 00:24:21;;;;;;;0.45;0.45;;;;;;;;;;5008106;28;20065;-82
2023/10/31 00:26:49;;;;;;;0.20;0.20;;;;;;;;;;5007786;28;20441;-82
2023/10/31 00:29:17;;;;;;;0.85;0.55;;;;;;;;;;5008442;28;20049;-82
2023/10/31 00:31:44;;;;;;;1.85;0.50;;;;;;;;;;5006608;28;20126;-82
2023/10/31 00:34:12;;;;;;;0.57;0.57;;;;;;;;;;5022058;23;20046;-77
2023/10/31 00:36:39;;;;;;;0.30;0.30;;;;;;;;;;5031205;28;20491;-78
2023/10/31 00:39:07;;;;;;;0.25;0.25;;;;;;;;;;5011748;28;20120;-77
2023/10/31 00:41:34;;;;;;;0.20;0.20;;;;;;;;;;5013052;28;20136;-79
2023/10/31 00:44:02;;;;;;;0.30;0.30;;;;;;;;;;4994525;28;20060;-79
2023/10/31 00:46:30;;;;;;;0.98;0.50;;;;;;;;;;5008489;28;20565;-79
2023/10/31 00:48:57;;;;;;;0.03;0.03;;;;;;;;;;5000362;28;20057;-79
2023/10/31 00:51:25;;;;;;;0.05;0.05;;;;;;;;;;4995917;28;20033;-79
2023/10/31 00:53:52;;;;;;;0.80;0.80;;;;;;;;;;5009151;28;20128;-79
2023/10/31 00:56:19;;;;;;;0.75;0.73;;;;;;;;;;5013479;28;20495;-79
2023/10/31 00:58:47;;;;;;;0.68;0.68;;;;;;;;;;4995909;28;20570;-80
2023/10/31 01:01:14;;;;;;;0.30;0.30;;;;;;;;;;4996504;28;20083;-81
2023/10/31 01:03:42;;;;;;;0.13;0.13;;;;;;;;;;4996627;28;20049;-78
2023/10/31 01:06:10;;;;;;;0.30;0.30;;;;;;;;;;5017146;28;20129;-80
2023/10/31 01:08:37;;;;;;;0.30;0.30;;;;;;;;;;5003991;28;20140;-78
2023/10/31 01:11:04;;;;;;;0.20;0.20;;;;;;;;;;4990989;28;20054;-78
2023/10/31 01:13:33;;;;;;;0.20;0.20;;;;;;;;;;5012687;28;20045;-82
2023/10/31 01:16:00;;;;;;;0.30;0.30;;;;;;;;;;4978911;28;20046;-79
2023/10/31 01:18:28;;;;;;;0.10;0.10;;;;;;;;;;5012075;28;20049;-79
2023/10/31 01:20:56;;;;;;;0.10;0.10;;;;;;;;;;5009301;28;20050;-79
2023/10/31 01:23:23;;;;;;;0.20;0.20;;;;;;;;;;4996470;28;20096;-81
2023/10/31 01:25:51;;;;;;;0.10;0.10;;;;;;;;;;5008094;28;20102;-78
2023/10/31 01:28:19;;;;;;;0.10;0.10;;;;;;;;;;5014598;28;20046;-77
2023/10/31 01:30:46;;;;;;;0.10;0.10;;;;;;;;;;5016818;28;20347;-80
2023/10/31 01:33:14;;;;;;;0.10;0.10;;;;;;;;;;5016884;28;20049;-79
2023/10/31 01:35:41;;;;;;;0.10;0.10;;;;;;;;;;5018183;28;20081;-78
2023/10/31 01:38:09;;;;;;;0.08;0.08;;;;;;;;;;5001260;28;20099;-79
2023/10/31 01:40:36;;;;;;;0.10;0.10;;;;;;;;;;5016231;28;20121;-78
2023/10/31 01:43:04;;;;;;;0.30;0.30;;;;;;;;;;5009056;28;20120;-77
2023/10/31 01:45:31;;;;;;;0.10;0.10;;;;;;;;;;5011981;28;20050;-78
2023/10/31 01:47:59;;;;;;;0.10;0.10;;;;;;;;;;5020541;28;20037;-78
2023/10/31 01:50:28;;;;;;;0.10;0.10;;;;;;;;;;5005411;28;20058;-78
2023/10/31 01:52:56;;;;;;;0.10;0.10;;;;;;;;;;5016654;28;20046;-78
2023/10/31 01:55:27;;;;;;;0.10;0.10;;;;;;;;;;5013538;28;20091;-77
2023/10/31 01:57:55;;;;;;;0.32;0.32;;;;;;;;;;5013738;28;20047;-78
2023/10/31 02:00:23;;;;;;;0.00;0.00;;;;;;;;;;5014491;28;20058;-77
2023/10/31 02:02:52;;;;;;;0.10;0.10;;;;;;;;;;5017305;28;20053;-77
2023/10/31 02:05:20;;;;;;;0.20;0.20;;;;;;;;;;5016197;28;20521;-77
2023/10/31 02:07:48;;;;;;;0.00;0.00;;;;;;;;;;5012860;28;20100;-77
2023/10/31 02:10:16;;;;;;;0.10;0.10;;;;;;;;;;5007405;28;20526;-77
2023/10/31 02:12:43;;;;;;;0.10;0.10;;;;;;;;;;5013201;28;20066;-77
2023/10/31 02:15:11;;;;;;;0.00;0.00;;;;;;;;;;4983078;28;20050;-77
2023/10/31 02:17:39;;;;;;;0.10;0.10;;;;;;;;;;5011049;28;20050;-76
2023/10/31 02:20:06;;;;;;;0.08;0.08;;;;;;;;;;5006099;28;20448;-76
2023/10/31 02:22:34;;;;;;;0.10;0.10;;;;;;;;;;4984746;28;20070;-77
2023/10/31 02:25:02;;;;;;;0.10;0.10;;;;;;;;;;4998718;28;20060;-77
2023/10/31 02:27:29;;;;;;;0.43;0.35;;;;;;;;;;5000079;28;20057;-77
2023/10/31 02:29:57;;;;;;;0.05;0.05;;;;;;;;;;5009751;28;20530;-77
2023/10/31 02:32:24;;;;;;;0.00;0.00;;;;;;;;;;5010775;28;20045;-77
2023/10/31 02:34:52;;;;;;;0.43;0.43;;;;;;;;;;5014899;28;20065;-77
2023/10/31 02:37:19;;;;;;;0.10;0.10;;;;;;;;;;5015098;28;20037;-76
2023/10/31 02:39:47;;;;;;;0.00;0.00;;;;;;;;;;5002825;28;20077;-78
2023/10/31 02:42:14;;;;;;;0.20;0.20;;;;;;;;;;4999614;28;20136;-78
2023/10/31 02:44:42;;;;;;;0.10;0.10;;;;;;;;;;5014497;28;20053;-78
2023/10/31 02:47:09;;;;;;;0.08;0.08;;;;;;;;;;5001848;28;20050;-78
2023/10/31 02:49:37;;;;;;;0.20;0.20;;;;;;;;;;5000264;28;20053;-76
2023/10/31 02:52:04;;;;;;;0.60;0.60;;;;;;;;;;5015455;28;20169;-78
2023/10/31 02:54:31;;;;;;;0.10;0.10;;;;;;;;;;5021655;28;20049;-77
2023/10/31 02:56:59;;;;;;;0.20;0.20;;;;;;;;;;5009669;28;20056;-78
2023/10/31 02:59:26;;;;;;;0.00;0.00;;;;;;;;;;5007122;28;20056;-77
2023/10/31 03:01:54;;;;;;;0.10;0.10;;;;;;;;;;5014753;28;20487;-77
2023/10/31 03:04:22;;;;;;;0.17;0.17;;;;;;;;;;5018861;28;20046;-77
2023/10/31 03:06:49;;;;;;;0.08;0.08;;;;;;;;;;5005420;28;20049;-77
2023/10/31 03:09:16;;;;;;;0.10;0.10;;;;;;;;;;5019657;28;20053;-80
2023/10/31 03:11:44;;;;;;;0.55;0.30;;;;;;;;;;5020862;28;20284;-82
2023/10/31 03:14:12;;;;;;;0.10;0.10;;;;;;;;;;4980851;28;20077;-79
2023/10/31 03:16:39;;;;;;;0.50;0.50;;;;;;;;;;4991989;28;20041;-80
2023/10/31 03:19:07;;;;;;;0.52;0.40;;;;;;;;;;5017240;28;20086;-82
2023/10/31 03:21:35;;;;;;;0.32;0.32;;;;;;;;;;5000114;28;20073;-81
2023/10/31 03:24:02;;;;;;;0.22;0.22;;;;;;;;;;5004608;28;20042;-80
2023/10/31 03:26:29;;;;;;;0.20;0.20;;;;;;;;;;5010129;28;20080;-81
2023/10/31 03:28:57;;;;;;;0.10;0.10;;;;;;;;;;5011027;28;20141;-81
2023/10/31 03:31:25;;;;;;;0.10;0.10;;;;;;;;;;5010922;28;20550;-81
2023/10/31 03:33:53;;;;;;;0.25;0.15;;;;;;;;;;4994214;28;20045;-81
2023/10/31 03:36:21;;;;;;;0.10;0.10;;;;;;;;;;5010669;28;20041;-79
2023/10/31 03:38:48;;;;;;;0.00;0.00;;;;;;;;;;5007140;28;20041;-79
2023/10/31 03:41:16;;;;;;;0.00;0.00;;;;;;;;;;5000161;28;20523;-81
2023/10/31 03:43:44;;;;;;;0.20;0.20;;;;;;;;;;4997492;28;20046;-81
2023/10/31 03:46:12;;;;;;;0.10;0.10;;;;;;;;;;5005579;28;20049;-81
2023/10/31 03:48:39;;;;;;;0.20;0.20;;;;;;;;;;5003359;28;20108;-82
2023/10/31 03:51:07;;;;;;;0.00;0.00;;;;;;;;;;5017312;28;20041;-79
2023/10/31 03:53:34;;;;;;;0.28;0.28;;;;;;;;;;4978269;28;20084;-81
2023/10/31 03:56:02;;;;;;;0.28;0.17;;;;;;;;;;4989788;28;20038;-82
2023/10/31 03:58:29;;;;;;;0.10;0.10;;;;;;;;;;4996832;28;20085;-80
2023/10/31 04:00:58;;;;;;;0.10;0.10;;;;;;;;;;5009095;28;20423;-81
2023/10/31 04:03:26;;;;;;;0.08;0.08;;;;;;;;;;4993073;28;20056;-81
2023/10/31 04:05:54;;;;;;;0.10;0.10;;;;;;;;;;5002827;28;20073;-79
2023/10/31 04:08:21;;;;;;;0.15;0.15;;;;;;;;;;5010493;28;20069;-80
2023/10/31 04:10:49;;;;;;;0.10;0.10;;;;;;;;;;5006619;28;20137;-79
2023/10/31 04:13:16;;;;;;;0.10;0.10;;;;;;;;;;5010868;28;20393;-81
2023/10/31 04:15:44;;;;;;;0.10;0.10;;;;;;;;;;4994426;28;20381;-81
2023/10/31 04:18:11;;;;;;;0.10;0.10;;;;;;;;;;5010815;28;20045;-78
2023/10/31 04:20:39;;;;;;;0.10;0.10;;;;;;;;;;5010521;28;20392;-79
2023/10/31 04:23:06;;;;;;;0.05;0.05;;;;;;;;;;5011733;28;20057;-80
2023/10/31 04:25:34;;;;;;;0.00;0.00;;;;;;;;;;5006618;28;20065;-78
2023/10/31 04:28:02;;;;;;;0.10;0.10;;;;;;;;;;5008336;28;20046;-78
2023/10/31 04:30:29;;;;;;;0.00;0.00;;;;;;;;;;5000887;28;20060;-79
2023/10/31 04:32:57;;;;;;;0.10;0.10;;;;;;;;;;5007196;28;20048;-85
2023/10/31 04:35:24;;;;;;;0.00;0.00;;;;;;;;;;4994806;28;20056;-78
2023/10/31 04:37:52;;;;;;;0.10;0.10;;;;;;;;;;5005711;28;20050;-78
2023/10/31 04:40:19;;;;;;;0.00;0.00;;;;;;;;;;5011205;28;20137;-79
2023/10/31 04:42:47;;;;;;;0.10;0.10;;;;;;;;;;5016730;28;20037;-79
2023/10/31 04:45:15;;;;;;;0.10;0.10;;;;;;;;;;5010823;28;20518;-80
2023/10/31 04:47:43;;;;;;;0.10;0.10;;;;;;;;;;5017865;28;20103;-80
2023/10/31 04:50:11;;;;;;;0.00;0.00;;;;;;;;;;5009966;28;20034;-79
2023/10/31 04:52:38;;;;;;;0.10;0.10;;;;;;;;;;5014098;28;20057;-79
2023/10/31 04:55:06;;;;;;;0.00;0.00;;;;;;;;;;5015044;28;20162;-79
2023/10/31 04:57:33;;;;;;;1.08;0.20;;;;;;;;;;5009374;28;20046;-77
2023/10/31 05:00:01;;;;;;;0.10;0.10;;;;;;;;;;5014318;28;20042;-78
2023/10/31 05:02:28;;;;;;;0.10;0.10;;;;;;;;;;5006638;28;20065;-78
2023/10/31 05:04:57;;;;;;;0.10;0.10;;;;;;;;;;5012029;28;20529;-78
2023/10/31 05:07:25;;;;;;;0.10;0.10;;;;;;;;;;5008435;28;20073;-79
2023/10/31 05:09:53;;;;;;;0.10;0.10;;;;;;;;;;4989894;28;20143;-79
2023/10/31 05:12:20;;;;;;;0.00;0.00;;;;;;;;;;5006785;28;20045;-78
2023/10/31 05:14:48;;;;;;;0.10;0.10;;;;;;;;;;5003724;28;20135;-78
2023/10/31 05:17:15;;;;;;;0.00;0.00;;;;;;;;;;5009803;28;20034;-78
2023/10/31 05:19:43;;;;;;;0.03;0.03;;;;;;;;;;5006500;28;20046;-78
2023/10/31 05:22:10;;;;;;;0.00;0.00;;;;;;;;;;5008368;28;20054;-78
2023/10/31 05:24:38;;;;;;;0.00;0.00;;;;;;;;;;5013374;28;22277;-78
2023/10/31 05:27:07;;;;;;;0.10;0.10;;;;;;;;;;5012847;28;20103;-78
2023/10/31 05:29:35;;;;;;;0.13;0.13;;;;;;;;;;5009744;28;20053;-78
2023/10/31 05:32:03;;;;;;;0.10;0.10;;;;;;;;;;5008047;28;20061;-78
2023/10/31 05:34:31;;;;;;;0.05;0.05;;;;;;;;;;5007785;28;20052;-78
2023/10/31 05:36:58;;;;;;;0.10;0.10;;;;;;;;;;5011336;28;20046;-81
2023/10/31 05:39:26;;;;;;;0.10;0.10;;;;;;;;;;5015468;28;20054;-78
2023/10/31 05:41:54;;;;;;;0.10;0.10;;;;;;;;;;5006963;28;20060;-78
2023/10/31 05:44:21;;;;;;;0.10;0.10;;;;;;;;;;5009665;28;20053;-78
2023/10/31 05:46:49;;;;;;;0.10;0.10;;;;;;;;;;5013586;28;20057;-78
2023/10/31 05:49:17;;;;;;;0.20;0.20;;;;;;;;;;5009928;28;20045;-78
2023/10/31 05:51:44;;;;;;;0.20;0.20;;;;;;;;;;5013466;28;20038;-79
2023/10/31 05:54:14;;;;;;;0.10;0.10;;;;;;;;;;5009236;28;20048;-78
2023/10/31 05:56:42;;;;;;;0.08;0.08;;;;;;;;;;5010889;28;20053;-78
2023/10/31 05:59:09;;;;;;;0.20;0.20;;;;;;;;;;5008761;28;20061;-78
2023/10/31 06:01:40;;;;;;;0.10;0.10;;;;;;;;;;4991377;28;20073;-78
2023/10/31 06:04:08;;;;;;;0.10;0.10;;;;;;;;;;5006316;28;20497;-78
2023/10/31 06:06:39;;;;;;;0.05;0.05;;;;;;;;;;5002842;28;20054;-78
2023/10/31 06:09:06;;;;;;;0.10;0.10;;;;;;;;;;5009941;28;20042;-78
2023/10/31 06:11:34;;;;;;;0.10;0.10;;;;;;;;;;5006762;28;20046;-78
2023/10/31 06:14:02;;;;;;;0.10;0.10;;;;;;;;;;5009705;28;20061;-79
2023/10/31 06:16:32;;;;;;;0.08;0.08;;;;;;;;;;5009018;28;20119;-81
2023/10/31 06:19:00;;;;;;;0.10;0.10;;;;;;;;;;5006074;28;20053;-78
2023/10/31 06:21:27;;;;;;;0.10;0.10;;;;;;;;;;5010874;28;20042;-78
2023/10/31 06:23:55;;;;;;;1.35;0.30;;;;;;;;;;5007136;28;20076;-78
2023/10/31 06:26:22;;;;;;;0.10;0.10;;;;;;;;;;5009563;28;20538;-78
2023/10/31 06:28:49;;;;;;;0.10;0.10;;;;;;;;;;5012176;28;20064;-78
2023/10/31 06:31:37;;;;;;;0.00;0.00;;;;;;;;;;5012368;28;20122;-78
2023/10/31 06:34:04;;;;;;;0.10;0.10;;;;;;;;;;5039447;22;20069;-76
2023/10/31 06:36:31;;;;;;;0.00;0.00;;;;;;;;;;5026439;28;20053;-75
2023/10/31 06:38:59;;;;;;;0.10;0.10;;;;;;;;;;5020382;28;20053;-74
2023/10/31 06:41:26;;;;;;;0.00;0.00;;;;;;;;;;5047858;28;20111;-75
2023/10/31 06:43:54;;;;;;;0.22;0.22;;;;;;;;;;5049476;28;20057;-75
2023/10/31 06:46:21;;;;;;;0.45;0.45;;;;;;;;;;5038104;28;20037;-75
2023/10/31 06:48:49;;;;;;;0.20;0.20;;;;;;;;;;5026132;28;20132;-75
2023/10/31 06:51:17;;;;;;;0.10;0.10;;;;;;;;;;5028784;28;20122;-75
2023/10/31 06:53:45;;;;;;;0.10;0.10;;;;;;;;;;5023994;28;20034;-76
2023/10/31 06:56:12;;;;;;;0.10;0.10;;;;;;;;;;4994846;28;20041;-75
2023/10/31 06:58:40;;;;;;;0.10;0.10;;;;;;;;;;5031130;28;20121;-77
2023/10/31 07:01:07;;;;;;;0.00;0.00;;;;;;;;;;5026312;28;20057;-76
2023/10/31 07:03:35;;;;;;;0.05;0.05;;;;;;;;;;5016480;28;20483;-76
2023/10/31 07:06:02;;;;;;;0.10;0.10;;;;;;;;;;5014344;28;20052;-76
2023/10/31 07:08:30;;;;;;;0.00;0.00;;;;;;;;;;5010468;28;20053;-76
2023/10/31 07:10:57;;;;;;;0.10;0.10;;;;;;;;;;5025542;28;20049;-76
2023/10/31 07:13:28;;;;;;;0.20;0.20;;;;;;;;;;5024638;28;20515;-76
2023/10/31 07:15:56;;;;;;;0.00;0.00;;;;;;;;;;5026565;28;20461;-76
2023/10/31 07:18:24;;;;;;;0.30;0.30;;;;;;;;;;5021594;28;20049;-74
2023/10/31 07:20:51;;;;;;;0.10;0.10;;;;;;;;;;5029761;28;20052;-75
2023/10/31 07:23:18;;;;;;;0.03;0.03;;;;;;;;;;4996621;28;20046;-76
2023/10/31 07:25:46;;;;;;;0.10;0.10;;;;;;;;;;5023390;28;20091;-75
2023/10/31 07:28:13;;;;;;;0.38;0.38;;;;;;;;;;5035291;28;20045;-76
2023/10/31 07:30:41;;;;;;;0.10;0.10;;;;;;;;;;5034808;28;20564;-75
2023/10/31 07:33:08;;;;;;;0.10;0.10;;;;;;;;;;5025167;28;20128;-77
2023/10/31 07:35:37;;;;;;;0.05;0.05;;;;;;;;;;5014925;28;21126;-76
2023/10/31 07:38:04;;;;;;;0.10;0.10;;;;;;;;;;5024013;28;20045;-76
2023/10/31 07:40:32;;;;;;;0.00;0.00;;;;;;;;;;5022197;28;20054;-75
2023/10/31 07:42:59;;;;;;;0.10;0.10;;;;;;;;;;5022245;28;20049;-75
2023/10/31 07:45:27;;;;;;;0.45;0.10;;;;;;;;;;5021008;28;20069;-75
2023/10/31 07:47:54;;;;;;;0.03;0.03;;;;;;;;;;5017579;28;20046;-76
2023/10/31 07:50:22;;;;;;;0.10;0.10;;;;;;;;;;5021627;28;20499;-76
2023/10/31 07:52:49;;;;;;;0.10;0.10;;;;;;;;;;5015560;28;20069;-76
2023/10/31 07:55:17;;;;;;;0.35;0.35;;;;;;;;;;5024350;28;20054;-77
2023/10/31 07:57:44;;;;;;;0.10;0.10;;;;;;;;;;5020204;28;20460;-75
2023/10/31 08:00:12;;;;;;;0.20;0.20;;;;;;;;;;5024885;28;20053;-76
2023/10/31 08:02:40;;;;;;;3.15;0.57;;;;;;;;;;5026353;28;20398;-75
2023/10/31 08:05:08;;;;;;;0.30;0.28;;;;;;;;;;5024652;28;20051;-75
2023/10/31 08:07:35;;;;;;;0.10;0.10;;;;;;;;;;5020469;28;20058;-75
2023/10/31 08:10:06;;;;;;;0.10;0.10;;;;;;;;;;5017143;28;20080;-75
2023/10/31 08:12:35;;;;;;;0.20;0.20;;;;;;;;;;5017258;28;20048;-75
2023/10/31 08:15:03;;;;;;;0.17;0.17;;;;;;;;;;5030023;28;20048;-75
2023/10/31 08:17:31;;;;;;;0.45;0.45;;;;;;;;;;5000537;28;20072;-76
2023/10/31 08:19:58;;;;;;;0.20;0.20;;;;;;;;;;5028153;28;20038;-77
2023/10/31 08:22:26;;;;;;;0.70;0.57;;;;;;;;;;5029559;28;20418;-73
2023/10/31 08:24:54;;;;;;;0.10;0.10;;;;;;;;;;5032991;28;20046;-76
2023/10/31 08:27:21;;;;;;;0.30;0.30;;;;;;;;;;5030349;28;20053;-75
2023/10/31 08:29:49;;;;;;;0.10;0.10;;;;;;;;;;5024262;28;20073;-75
2023/10/31 08:32:16;;;;;;;0.10;0.10;;;;;;;;;;5025303;28;20470;-76
2023/10/31 08:34:43;;;;;;;0.10;0.10;;;;;;;;;;5027694;28;20049;-75
2023/10/31 08:37:11;;;;;;;0.10;0.10;;;;;;;;;;5010051;28;20049;-75
2023/10/31 08:39:39;;;;;;;0.10;0.10;;;;;;;;;;5007177;28;20054;-75
2023/10/31 08:42:07;;;;;;;0.00;0.00;;;;;;;;;;5024698;28;20117;-74
2023/10/31 08:44:36;;;;;;;0.47;0.47;;;;;;;;;;5018729;28;20310;-75
2023/10/31 08:47:04;;;;;;;0.10;0.10;;;;;;;;;;5026024;28;20057;-75
2023/10/31 08:49:32;;;;;;;0.10;0.10;;;;;;;;;;5015116;28;20061;-75
2023/10/31 08:52:02;;;;;;;0.10;0.10;;;;;;;;;;5026472;28;20452;-75
2023/10/31 08:54:29;;;;;;;0.17;0.17;;;;;;;;;;5029683;28;20431;-76
2023/10/31 08:56:57;;;;;;;0.10;0.10;;;;;;;;;;5024284;28;20042;-76
2023/10/31 08:59:24;;;;;;;0.00;0.00;;;;;;;;;;5026871;28;20522;-76
2023/10/31 09:01:51;;;;;;;0.10;0.10;;;;;;;;;;5021374;28;20491;-76
2023/10/31 09:04:19;;;;;;;0.10;0.10;;;;;;;;;;5024543;28;20154;-76
2023/10/31 09:06:47;;;;;;;0.10;0.10;;;;;;;;;;5001823;28;20061;-75
2023/10/31 09:09:15;;;;;;;0.10;0.10;;;;;;;;;;5005523;28;20041;-73
2023/10/31 09:11:42;;;;;;;0.10;0.10;;;;;;;;;;5023438;28;20422;-74
2023/10/31 09:14:10;;;;;;;0.00;0.00;;;;;;;;;;5034583;28;20495;-76
2023/10/31 09:16:37;;;;;;;0.10;0.10;;;;;;;;;;5027709;28;20096;-75
2023/10/31 09:19:05;;;;;;;0.10;0.10;;;;;;;;;;5017325;28;20366;-75
2023/10/31 09:21:33;;;;;;;0.10;0.10;;;;;;;;;;5034468;28;20084;-76
2023/10/31 09:24:00;;;;;;;0.05;0.05;;;;;;;;;;5026323;28;20140;-76
2023/10/31 09:26:27;;;;;;;0.10;0.10;;;;;;;;;;5032372;28;20041;-74
2023/10/31 09:28:55;;;;;;;0.10;0.10;;;;;;;;;;5038760;28;20164;-74
2023/10/31 09:31:23;;;;;;;3.40;0.68;;;;;;;;;;5028354;28;20515;-75
2023/10/31 09:33:51;;;;;;;0.20;0.20;;;;;;;;;;5034776;28;20052;-76
2023/10/31 09:36:20;;;;;;;0.10;0.10;;;;;;;;;;5029801;28;20046;-76
2023/10/31 09:38:47;;;;;;;0.00;0.00;;;;;;;;;;5018237;28;20108;-73
2023/10/31 09:41:15;;;;;;;0.10;0.10;;;;;;;;;;5026525;28;20340;-73
2023/10/31 09:43:42;;;;;;;1.73;0.60;;;;;;;;;;5030248;28;20041;-75
2023/10/31 09:46:10;;;;;;;0.05;0.05;;;;;;;;;;5027828;28;20254;-75
2023/10/31 09:48:38;;;;;;;0.20;0.20;;;;;;;;;;5027516;28;20069;-76
2023/10/31 09:51:06;;;;;;;0.10;0.10;;;;;;;;;;5029546;28;20042;-76
2023/10/31 09:53:34;;;;;;;0.80;0.80;;;;;;;;;;5028455;28;20049;-76
2023/10/31 09:56:02;;;;;;;0.10;0.10;;;;;;;;;;5001432;28;20053;-76
2023/10/31 09:58:29;;;;;;;0.10;0.10;;;;;;;;;;5030143;28;20049;-74
2023/10/31 10:00:57;;;;;;;0.10;0.10;;;;;;;;;;5023957;28;20052;-75
2023/10/31 10:03:24;;;;;;;0.10;0.10;;;;;;;;;;5028320;28;20076;-76
2023/10/31 10:05:52;;;;;;;0.20;0.20;;;;;;;;;;5032852;28;20519;-75
2023/10/31 10:08:20;;;;;;;0.57;0.57;;;;;;;;;;5034980;28;20053;-76
2023/10/31 10:10:48;;;;;;;0.10;0.10;;;;;;;;;;5036333;28;20048;-75
2023/10/31 10:13:19;;;;;;;0.20;0.20;;;;;;;;;;5034065;28;20123;-74
2023/10/31 10:15:52;;;;;;;0.20;0.20;;;;;;;;;;5033635;28;20049;-73
2023/10/31 10:18:26;;;;;;;0.22;0.22;;;;;;;;;;5037949;28;20108;-74
2023/10/31 10:20:58;;;;;;;0.10;0.10;;;;;;;;;;5033150;28;20410;-76
2023/10/31 10:23:25;;;;;;;0.13;0.13;;;;;;;;;;5031622;28;20065;-78
2023/10/31 10:25:53;;;;;;;0.10;0.10;;;;;;;;;;5037189;28;20333;-74
2023/10/31 10:28:21;;;;;;;0.10;0.10;;;;;;;;;;5033640;28;20526;-73
2023/10/31 10:30:49;;;;;;;0.25;0.25;;;;;;;;;;5034467;28;20097;-74
2023/10/31 10:33:17;;;;;;;0.10;0.10;;;;;;;;;;5007701;28;20057;-74
2023/10/31 10:35:45;;;;;;;0.35;0.35;;;;;;;;;;5032906;28;20056;-74
2023/10/31 10:38:16;;;;;;;0.10;0.10;;;;;;;;;;5033650;28;20046;-75
2023/10/31 10:40:44;;;;;;;;;;;;;;;;;;5025365;28;20042;-77
2023/10/31 10:43:22;;;;;;;0.10;0.10;;;;;;;;;;5035627;28;20286;-75
2023/10/31 10:45:57;;;;;;;0.10;0.10;;;;;;;;;;5027556;28;20068;-72
2023/10/31 10:48:26;;;;;;;0.10;0.10;;;;;;;;;;5010308;28;20095;-74
2023/10/31 10:50:59;;;;;;;0.13;0.13;;;;;;;;;;5034056;28;20268;-73
2023/10/31 10:53:30;;;;;;;0.10;0.10;;;;;;;;;;5030737;28;20128;-74
2023/10/31 10:56:00;;;;;;;0.40;0.40;;;;;;;;;;5034050;28;20133;-76
2023/10/31 10:58:34;;;;;;;0.93;0.63;;;;;;;;;;5029783;28;20538;-74
2023/10/31 11:01:02;;;;;;;0.10;0.10;;;;;;;;;;5034046;28;20068;-76
2023/10/31 11:03:30;;;;;;;1.38;0.22;;;;;;;;;;5032444;28;20320;-72
2023/10/31 11:05:58;;;;;;;0.10;0.10;;;;;;;;;;5031293;28;20061;-76
2023/10/31 11:08:26;;;;;;;0.10;0.10;;;;;;;;;;5029962;28;20461;-75
2023/10/31 11:10:54;;;;;;;0.15;0.15;;;;;;;;;;5035318;28;20538;-76
2023/10/31 11:13:22;;;;;;;0.10;0.10;;;;;;;;;;5030168;28;20080;-75
2023/10/31 11:15:52;;;;;;;0.10;0.10;;;;;;;;;;5036015;28;20118;-73
2023/10/31 11:18:19;;;;;;;0.10;0.10;;;;;;;;;;5031039;28;20401;-75
2023/10/31 11:20:47;;;;;;;0.43;0.43;;;;;;;;;;5032209;28;20474;-73
2023/10/31 11:23:14;;;;;;;0.15;0.15;;;;;;;;;;5030049;28;20041;-73
2023/10/31 11:25:45;;;;;;;0.22;0.20;;;;;;;;;;5032964;28;20056;-74
2023/10/31 11:28:17;;;;;;;0.35;0.35;;;;;;;;;;5037542;28;20358;-73
2023/10/31 11:30:59;;;;;;;0.00;0.00;;;;;;;;;;5033130;28;20136;-73
2023/10/31 11:33:26;;;;;;;0.10;0.10;;;;;;;;;;5026137;28;20478;-75
2023/10/31 11:36:04;;;;;;;0.30;0.30;;;;;;;;;;5022708;28;20053;-75
2023/10/31 11:38:33;;;;;;;0.40;0.40;;;;;;;;;;5034378;28;20059;-77
2023/10/31 11:41:02;;;;;;;0.10;0.10;;;;;;;;;;5033885;28;20269;-73
2023/10/31 11:43:41;;;;;;;3.40;1.00;;;;;;;;;;5032126;28;20050;-77
2023/10/31 11:46:19;;;;;;;0.10;0.10;;;;;;;;;;5034547;28;20056;-77
2023/10/31 11:48:48;;;;;;;0.00;0.00;;;;;;;;;;5026961;28;20043;-76
2023/10/31 11:51:16;;;;;;;0.10;0.10;;;;;;;;;;5026633;28;20718;-73
2023/10/31 11:53:49;;;;;;;0.30;0.30;;;;;;;;;;5031776;28;20061;-74
2023/10/31 11:56:21;;;;;;;0.10;0.10;;;;;;;;;;5026756;28;20059;-75
2023/10/31 11:59:18;;;;;;;0.20;0.20;;;;;;;;;;5028529;28;20049;-74
2023/10/31 12:01:48;;;;;;;0.10;0.10;;;;;;;;;;5024011;28;20073;-74
2023/10/31 12:04:23;;;;;;;0.10;0.10;;;;;;;;;;5036311;28;20472;-73
2023/10/31 12:06:58;;;;;;;0.10;0.10;;;;;;;;;;5025663;28;20094;-74
2023/10/31 12:09:25;;;;;;;0.20;0.20;;;;;;;;;;5031183;28;20092;-74
2023/10/31 12:11:54;;;;;;;0.10;0.10;;;;;;;;;;5038495;28;20106;-77
2023/10/31 12:14:22;;;;;;;0.20;0.20;;;;;;;;;;5039905;28;20048;-74
2023/10/31 12:16:49;;;;;;;0.00;0.00;;;;;;;;;;5035310;28;20045;-73
2023/10/31 12:19:17;;;;;;;0.10;0.10;;;;;;;;;;5032849;28;20050;-73
2023/10/31 12:21:47;;;;;;;1.98;0.47;;;;;;;;;;5025962;28;20068;-73
2023/10/31 12:24:16;;;;;;;0.00;0.00;;;;;;;;;;5030978;28;20076;-73
2023/10/31 12:26:44;;;;;;;0.10;0.10;;;;;;;;;;5023441;28;20404;-74
2023/10/31 12:29:12;;;;;;;0.10;0.10;;;;;;;;;;5036819;28;20443;-74
2023/10/31 12:31:40;;;;;;;0.10;0.10;;;;;;;;;;5039408;28;20163;-76
2023/10/31 12:34:09;;;;;;;0.20;0.20;;;;;;;;;;5040237;23;20049;-77
2023/10/31 12:36:38;;;;;;;0.03;0.03;;;;;;;;;;5027935;28;20038;-78
2023/10/31 12:39:12;;;;;;;0.10;0.10;;;;;;;;;;5041574;28;20052;-81
2023/10/31 12:41:41;;;;;;;0.13;0.13;;;;;;;;;;5041020;28;20045;-81
2023/10/31 12:44:12;;;;;;;0.20;0.20;;;;;;;;;;5026639;28;20070;-75
2023/10/31 12:46:41;;;;;;;1.33;0.28;;;;;;;;;;5030981;28;20056;-83
2023/10/31 12:49:15;;;;;;;0.20;0.20;;;;;;;;;;5028895;28;20052;-78
2023/10/31 12:51:56;;;;;;;0.10;0.10;;;;;;;;;;5019525;28;20529;-79
2023/10/31 12:54:31;;;;;;;0.10;0.10;;;;;;;;;;5034573;28;20050;-77
2023/10/31 12:57:02;;;;;;;0.00;0.00;;;;;;;;;;5028579;28;20337;-81
2023/10/31 12:59:31;;;;;;;0.10;0.10;;;;;;;;;;5031142;28;20533;-79
2023/10/31 13:01:59;;;;;;;0.10;0.10;;;;;;;;;;5026305;28;20460;-77
2023/10/31 13:04:28;;;;;;;0.30;0.30;;;;;;;;;;5023671;28;20053;-79
2023/10/31 13:07:05;;;;;;;0.10;0.10;;;;;;;;;;5026668;28;20053;-79
2023/10/31 13:09:35;;;;;;;0.43;0.43;;;;;;;;;;5027732;28;20057;-79
2023/10/31 13:12:03;;;;;;;0.20;0.10;;;;;;;;;;5021683;28;20143;-78
2023/10/31 13:14:31;;;;;;;0.10;0.10;;;;;;;;;;5027081;28;20481;-78
2023/10/31 13:16:59;;;;;;;0.10;0.10;;;;;;;;;;5029443;28;20041;-79
2023/10/31 13:19:26;;;;;;;0.10;0.10;;;;;;;;;;5037071;28;20411;-78
2023/10/31 13:21:54;;;;;;;0.00;0.00;;;;;;;;;;5026446;28;20508;-79
2023/10/31 13:24:21;;;;;;;0.10;0.10;;;;;;;;;;5019278;28;20057;-78
2023/10/31 13:26:51;;;;;;;0.10;0.10;;;;;;;;;;5022231;28;20053;-81
2023/10/31 13:29:20;;;;;;;0.08;0.08;;;;;;;;;;5020134;28;20062;-78
2023/10/31 13:31:48;;;;;;;0.30;0.30;;;;;;;;;;5020956;28;20053;-79
2023/10/31 13:34:15;;;;;;;0.28;0.28;;;;;;;;;;5035318;28;21413;-78
2023/10/31 13:36:44;;;;;;;0.38;0.38;;;;;;;;;;5031620;28;20048;-78
2023/10/31 13:39:11;;;;;;;0.10;0.10;;;;;;;;;;5029087;28;20056;-80
2023/10/31 13:41:39;;;;;;;0.10;0.10;;;;;;;;;;5011392;28;20530;-78
2023/10/31 13:44:06;;;;;;;1.23;0.88;;;;;;;;;;5024302;28;20045;-79
2023/10/31 13:46:34;;;;;;;0.10;0.10;;;;;;;;;;5031773;28;20422;-78
2023/10/31 13:49:03;;;;;;;0.50;0.50;;;;;;;;;;5030280;28;20076;-80
2023/10/31 13:51:30;;;;;;;0.10;0.10;;;;;;;;;;5029188;28;20041;-79
2023/10/31 13:53:58;;;;;;;0.47;0.47;;;;;;;;;;5026684;28;20041;-79
2023/10/31 13:56:25;;;;;;;0.10;0.10;;;;;;;;;;5019989;28;20506;-80
2023/10/31 13:58:53;;;;;;;0.10;0.10;;;;;;;;;;5034638;28;20064;-78
2023/10/31 14:01:24;;;;;;;0.15;0.13;;;;;;;;;;5033597;28;20053;-79
2023/10/31 14:03:52;;;;;;;0.10;0.10;;;;;;;;;;5033183;28;20064;-80
2023/10/31 14:06:20;;;;;;;0.28;0.28;;;;;;;;;;4998147;28;20435;-81
2023/10/31 14:08:47;;;;;;;0.10;0.10;;;;;;;;;;5031640;28;20041;-79
2023/10/31 14:11:15;;;;;;;0.25;0.25;;;;;;;;;;5026880;28;20111;-79
2023/10/31 14:13:44;;;;;;;0.43;0.43;;;;;;;;;;5027658;28;20104;-78
2023/10/31 14:16:12;;;;;;;0.10;0.10;;;;;;;;;;5036831;28;20049;-78
2023/10/31 14:18:42;;;;;;;0.20;0.20;;;;;;;;;;5029446;28;20523;-82
2023/10/31 14:21:09;;;;;;;0.20;0.20;;;;;;;;;;5028017;28;20054;-79
2023/10/31 14:23:37;;;;;;;0.10;0.10;;;;;;;;;;5029938;28;20052;-80
2023/10/31 14:26:04;;;;;;;0.90;0.90;;;;;;;;;;5011771;28;20053;-81
2023/10/31 14:28:32;;;;;;;0.22;0.22;;;;;;;;;;5026973;28;20052;-79
2023/10/31 14:31:00;;;;;;;0.10;0.10;;;;;;;;;;5030789;28;20447;-81
2023/10/31 14:33:29;;;;;;;0.10;0.10;;;;;;;;;;5023523;28;20063;-80
2023/10/31 14:35:57;;;;;;;1.08;0.60;;;;;;;;;;5011866;28;20049;-81
2023/10/31 14:38:24;;;;;;;1.60;0.30;;;;;;;;;;5027088;28;20065;-78
2023/10/31 14:40:52;;;;;;;0.10;0.10;;;;;;;;;;5031504;28;20472;-77
2023/10/31 14:43:19;;;;;;;0.00;0.00;;;;;;;;;;5027812;28;20340;-79
2023/10/31 14:45:47;;;;;;;0.40;0.40;;;;;;;;;;5027575;28;20457;-79
2023/10/31 14:48:14;;;;;;;0.20;0.20;;;;;;;;;;5026930;28;20065;-78
2023/10/31 14:50:42;;;;;;;0.77;0.68;;;;;;;;;;5032330;28;20164;-82